Kokomo, IN

1:27 PM EST on February 12, 2016 (GMT -0500)
Forest Park | | Change Station
CLOSE
Current Station
Personal Weather Station
Location: Kokomo, IN
Elevation: 823 ft
Nearby Weather Stations

Elev 823 ft 40.50 °N, 86.15 °W | Updated 9 seconds ago

Snow
Snow
24.4 °F
Feels Like 14 °F
N
10.3
Wind Variable Wind from SW
Gusts 12.3 mph

Today
High -- | Low -- °F
--% Chance of Precip.
Yesterday
High -- | Low -- °F
Precip. -- in
Pressure 30.10 in
Visibility 7.0 miles
Clouds Mostly Cloudy 1900 ft
Overcast 2600 ft
Windchill 14 °F
Dew Point -12 °F
Humidity 19%
Rainfall 0.00 in
Snow Depth Not available.
7:42 AM 6:15 PM
Waxing Crescent, 22% visible
METAR KOKK 121815Z AUTO 29017KT 7SM BKN019 OVC026 M04/M08 A3010 RMK AO1
Pressure 30.10 in
Visibility 7.0 miles
Clouds Mostly Cloudy 1900 ft
Overcast 2600 ft
Windchill 14 °F
Dew Point -12 °F
Humidity 19%
Rainfall 0.00 in
Snow Depth Not available.
7:42 AM 6:15 PM
Waxing Crescent, 22% visible
METAR KOKK 121815Z AUTO 29017KT 7SM BKN019 OVC026 M04/M08 A3010 RMK AO1

10-Day Weather Forecast

Almanac

Astronomy

Feb. 12, 2016 Rise Set
Actual Time
Civil Twilight
Nautical Twilight
Astronomical Twilight
Moon
Length of Visible Light
Length of Day
Tomorrow will be .
, % of the Moon is Illuminated

Today's Extremes

State Highs State Lows

Community

WunderPhotos

Upload Photos

1,892,364 photos uploaded!

WunderBlog® & News

Nearby

Air Quality

  Air Quality AQ Index Pollutant
Not available.

Snow Depth

Station Depth Elevation

Earthquake Activity

City Distance Mag. Time & Date
Minimum magnitude displayed is 2.5.

Coastal Water Temperatures

Place Temperature

Stations

Nearby Weather Stations

Station Location Temp. Windchill Dew Point Humidity Wind Precip. Elev Updated Type
                   

Watches & Warnings

There are currently no watches in effect.